createdAt,value
2023-03-16T00:01:06.575Z,-0.91
2023-03-16T00:03:35.321Z,-0.93
2023-03-16T00:06:03.885Z,-0.93
2023-03-16T00:08:37.240Z,-0.95
2023-03-16T00:11:06.368Z,-1.04
2023-03-16T00:13:38.382Z,-1.04
2023-03-16T00:16:07.901Z,-1.02
2023-03-16T00:18:39.404Z,-1.04
2023-03-16T00:21:08.260Z,-1.07
2023-03-16T00:23:38.658Z,-1.07
2023-03-16T00:26:10.031Z,-1.06
2023-03-16T00:28:39.982Z,-1.07
2023-03-16T00:31:14.930Z,-1.07
2023-03-16T00:33:44.003Z,-1.07
2023-03-16T00:36:12.955Z,-1.03
2023-03-16T00:38:45.436Z,-1.03
2023-03-16T00:41:15.537Z,-0.99
2023-03-16T00:43:45.601Z,-0.99
2023-03-16T00:46:15.964Z,-0.99
2023-03-16T00:48:46.002Z,-0.92
2023-03-16T00:51:16.419Z,-0.96
2023-03-16T00:53:46.400Z,-0.96
2023-03-16T00:56:14.724Z,-0.99
2023-03-16T00:58:45.811Z,-1.00
2023-03-16T01:01:19.035Z,-1.02
2023-03-16T01:03:47.735Z,-1.10
2023-03-16T01:06:17.845Z,-1.13
2023-03-16T01:08:47.849Z,-1.13
2023-03-16T01:11:20.440Z,-1.13
2023-03-16T01:13:55.080Z,-1.16
2023-03-16T01:16:24.332Z,-1.14
2023-03-16T01:18:53.574Z,-1.20
2023-03-16T01:21:23.120Z,-1.20
2023-03-16T01:23:53.924Z,-1.19
2023-03-16T01:26:24.170Z,-1.17
2023-03-16T01:28:54.672Z,-1.19
2023-03-16T01:31:24.199Z,-1.20
2023-03-16T01:33:53.049Z,-1.16
2023-03-16T01:36:21.460Z,-1.16
2023-03-16T01:38:51.451Z,-1.16
2023-03-16T01:41:22.242Z,-1.19
2023-03-16T01:43:53.680Z,-1.16
2023-03-16T01:46:30.143Z,-1.17
2023-03-16T01:49:06.209Z,-1.14
2023-03-16T01:51:38.181Z,-1.13
2023-03-16T01:54:09.692Z,-1.10
2023-03-16T01:56:42.196Z,-1.09
2023-03-16T01:59:14.090Z,-1.12
2023-03-16T02:01:44.100Z,-1.13
2023-03-16T02:04:23.233Z,-1.13
2023-03-16T02:06:52.993Z,-1.17
2023-03-16T02:09:22.374Z,-1.10
2023-03-16T02:11:59.191Z,-1.17
2023-03-16T02:14:28.407Z,-1.24
2023-03-16T02:16:59.251Z,-1.29
2023-03-16T02:19:36.543Z,-1.31
2023-03-16T02:22:09.118Z,-1.37
2023-03-16T02:24:37.760Z,-1.46
2023-03-16T02:27:08.271Z,-1.50
2023-03-16T02:29:57.373Z,-1.52
2023-03-16T02:32:26.303Z,-1.55
2023-03-16T02:34:55.391Z,-1.57
2023-03-16T02:37:23.882Z,-1.64
2023-03-16T02:39:53.702Z,-1.64
2023-03-16T02:42:24.053Z,-1.60
2023-03-16T02:44:56.297Z,-1.54
2023-03-16T02:47:30.052Z,-1.55
2023-03-16T02:49:58.353Z,-1.50
2023-03-16T02:52:26.511Z,-1.43
2023-03-16T02:54:54.584Z,-1.39
2023-03-16T02:57:22.946Z,-1.39
2023-03-16T02:59:52.165Z,-1.37
2023-03-16T03:02:25.365Z,-1.34
2023-03-16T03:04:54.575Z,-1.33
2023-03-16T03:07:32.380Z,-1.36
2023-03-16T03:10:03.060Z,-1.34
2023-03-16T03:12:33.577Z,-1.36
2023-03-16T03:15:01.739Z,-1.39
2023-03-16T03:17:32.456Z,-1.44
2023-03-16T03:20:02.340Z,-1.51
2023-03-16T03:22:32.444Z,-1.52
2023-03-16T03:25:02.760Z,-1.60
2023-03-16T03:27:30.946Z,-1.65
2023-03-16T03:29:59.235Z,-1.67
2023-03-16T03:32:27.607Z,-1.67
2023-03-16T03:34:58.172Z,-1.71
2023-03-16T03:37:26.362Z,-1.71
2023-03-16T03:39:54.532Z,-1.71
2023-03-16T03:42:24.127Z,-1.78
2023-03-16T03:44:52.388Z,-1.70
2023-03-16T03:47:22.236Z,-1.67
2023-03-16T03:49:50.517Z,-1.68
2023-03-16T03:52:19.868Z,-1.70
2023-03-16T03:54:48.036Z,-1.70
2023-03-16T03:57:16.315Z,-1.72
2023-03-16T03:59:45.641Z,-1.71
2023-03-16T04:02:14.949Z,-1.68
2023-03-16T04:04:43.928Z,-1.72
2023-03-16T04:07:12.545Z,-1.74
2023-03-16T04:09:42.001Z,-1.72
2023-03-16T04:12:10.940Z,-1.68
2023-03-16T04:14:38.982Z,-1.70
2023-03-16T04:17:07.466Z,-1.68
2023-03-16T04:19:35.804Z,-1.67
2023-03-16T04:22:03.925Z,-1.64
2023-03-16T04:24:34.302Z,-1.62
2023-03-16T04:27:04.063Z,-1.57
2023-03-16T04:29:33.074Z,-1.60
2023-03-16T04:32:01.346Z,-1.58
2023-03-16T04:34:29.603Z,-1.58
2023-03-16T04:36:57.879Z,-1.55
2023-03-16T04:39:28.204Z,-1.58
2023-03-16T04:41:57.393Z,-1.65
2023-03-16T04:44:26.958Z,-1.65
2023-03-16T04:46:55.018Z,-1.70
2023-03-16T04:49:23.342Z,-1.72
2023-03-16T04:51:54.245Z,-1.78
2023-03-16T04:54:22.322Z,-1.86
2023-03-16T04:56:52.587Z,-1.92
2023-03-16T04:59:20.834Z,-1.99
2023-03-16T05:01:50.387Z,-1.96
2023-03-16T05:04:19.714Z,-1.89
2023-03-16T05:06:47.996Z,-1.85
2023-03-16T05:09:16.028Z,-1.82
2023-03-16T05:11:45.601Z,-1.74
2023-03-16T05:14:13.641Z,-1.70
2023-03-16T05:16:42.578Z,-1.74
2023-03-16T05:19:12.489Z,-1.77
2023-03-16T05:21:40.509Z,-1.75
2023-03-16T05:24:09.134Z,-1.81
2023-03-16T05:26:37.359Z,-1.78
2023-03-16T05:29:05.556Z,-1.72
2023-03-16T05:31:33.717Z,-1.68
2023-03-16T05:34:02.903Z,-1.65
2023-03-16T05:36:32.547Z,-1.55
2023-03-16T05:39:02.801Z,-1.46
2023-03-16T05:41:35.011Z,-1.30
2023-03-16T05:44:05.710Z,-1.12
2023-03-16T05:46:35.628Z,-0.95
2023-03-16T05:49:04.612Z,-0.75
2023-03-16T05:51:34.273Z,-0.57
2023-03-16T05:54:02.714Z,-0.35
2023-03-16T05:56:32.055Z,-0.18
2023-03-16T05:59:00.787Z,0.01
2023-03-16T06:01:28.962Z,0.22
2023-03-16T06:03:57.735Z,0.52
2023-03-16T06:06:25.799Z,0.90
2023-03-16T06:08:55.920Z,1.26
2023-03-16T06:11:25.617Z,1.61
2023-03-16T06:13:57.829Z,2.02
2023-03-16T06:16:28.582Z,2.30
2023-03-16T06:18:59.646Z,2.61
2023-03-16T06:21:28.189Z,2.91
2023-03-16T06:23:57.911Z,3.19
2023-03-16T06:26:29.077Z,3.36
2023-03-16T06:28:57.522Z,3.60
2023-03-16T06:31:26.927Z,3.75
2023-03-16T06:33:55.138Z,3.91
2023-03-16T06:36:23.336Z,4.18
2023-03-16T06:38:51.649Z,4.43
2023-03-16T06:41:21.470Z,4.64
2023-03-16T06:43:49.578Z,4.94
2023-03-16T06:46:18.717Z,5.26
2023-03-16T06:48:48.426Z,5.43
2023-03-16T06:51:17.283Z,5.65
2023-03-16T06:53:45.691Z,5.82
2023-03-16T06:56:14.219Z,5.83
2023-03-16T06:58:43.981Z,5.83
2023-03-16T07:01:14.161Z,5.83
2023-03-16T07:03:42.872Z,5.82
2023-03-16T07:06:14.110Z,5.87
2023-03-16T07:08:43.570Z,6.03
2023-03-16T07:11:12.784Z,6.13
2023-03-16T07:13:41.952Z,6.05
2023-03-16T07:16:11.687Z,6.05
2023-03-16T07:18:40.139Z,6.07
2023-03-16T07:21:08.253Z,5.89
2023-03-16T07:23:36.909Z,5.76
2023-03-16T07:26:08.381Z,5.56
2023-03-16T07:28:36.840Z,5.18
2023-03-16T07:31:10.151Z,5.04
2023-03-16T07:33:42.267Z,5.07
2023-03-16T07:36:11.173Z,5.18
2023-03-16T07:38:40.251Z,5.14
2023-03-16T07:41:09.103Z,5.15
2023-03-16T07:43:39.977Z,5.15
2023-03-16T07:46:08.310Z,5.11
2023-03-16T07:48:37.713Z,5.12
2023-03-16T07:51:08.386Z,5.09
2023-03-16T07:53:36.848Z,5.16
2023-03-16T07:56:05.796Z,5.32
2023-03-16T07:58:36.372Z,5.50
2023-03-16T08:01:10.951Z,5.57
2023-03-16T08:03:40.183Z,5.49
2023-03-16T08:06:10.916Z,5.45
2023-03-16T08:08:39.257Z,5.38
2023-03-16T08:11:09.941Z,5.31
2023-03-16T08:13:38.191Z,5.32
2023-03-16T08:16:13.113Z,5.34
2023-03-16T08:18:51.719Z,5.32
2023-03-16T08:21:22.716Z,5.28
2023-03-16T08:23:51.995Z,5.45
2023-03-16T08:26:20.979Z,5.62
2023-03-16T08:28:52.117Z,5.84
2023-03-16T08:31:21.913Z,6.04
2023-03-16T08:33:50.904Z,6.13
2023-03-16T08:36:22.176Z,6.35
2023-03-16T08:39:05.553Z,6.62
2023-03-16T08:41:34.894Z,6.87
2023-03-16T08:44:05.661Z,7.14
2023-03-16T08:46:35.791Z,7.40
2023-03-16T08:49:04.055Z,7.63
2023-03-16T08:51:35.765Z,7.99
2023-03-16T08:54:04.197Z,8.10
2023-03-16T08:56:32.773Z,8.19
2023-03-16T08:59:01.069Z,8.41
2023-03-16T09:01:30.403Z,8.44
2023-03-16T09:03:58.900Z,8.82
2023-03-16T09:06:27.580Z,9.13
2023-03-16T09:08:57.439Z,9.23
2023-03-16T09:11:28.427Z,9.33
2023-03-16T09:13:56.452Z,9.40
2023-03-16T09:16:25.734Z,9.31
2023-03-16T09:18:54.297Z,9.19
2023-03-16T09:21:22.442Z,9.30
2023-03-16T09:23:50.925Z,9.50
2023-03-16T09:26:22.218Z,9.70
2023-03-16T09:28:52.368Z,9.68
2023-03-16T09:31:21.198Z,9.55
2023-03-16T09:33:50.567Z,9.46
2023-03-16T09:36:21.054Z,9.48
2023-03-16T09:38:49.418Z,9.95
2023-03-16T09:41:32.325Z,10.25
2023-03-16T09:44:09.200Z,10.36
2023-03-16T09:46:39.643Z,10.34
2023-03-16T09:49:08.195Z,10.37
2023-03-16T09:51:39.744Z,10.29
2023-03-16T09:54:16.877Z,10.06
2023-03-16T09:56:47.823Z,9.97
2023-03-16T09:59:19.317Z,9.99
2023-03-16T10:01:54.898Z,9.99
2023-03-16T10:04:36.628Z,10.02
2023-03-16T10:07:15.561Z,10.18
2023-03-16T10:09:49.144Z,10.30
2023-03-16T10:12:19.162Z,10.36
2023-03-16T10:14:55.006Z,10.42
2023-03-16T10:17:28.706Z,10.53
2023-03-16T10:19:59.208Z,10.55
2023-03-16T10:22:31.131Z,10.50
2023-03-16T10:25:04.293Z,10.63
2023-03-16T10:27:38.816Z,10.73
2023-03-16T10:30:21.038Z,10.77
2023-03-16T10:32:53.386Z,10.50
2023-03-16T10:35:23.905Z,10.56
2023-03-16T10:37:53.099Z,10.67
2023-03-16T10:40:22.294Z,10.84
2023-03-16T10:42:52.110Z,10.95
2023-03-16T10:45:27.844Z,11.22
2023-03-16T10:48:07.176Z,11.38
2023-03-16T10:50:36.498Z,11.45
2023-03-16T10:53:04.978Z,11.56
2023-03-16T10:55:43.915Z,11.39
2023-03-16T10:58:25.208Z,11.39
2023-03-16T11:00:55.298Z,11.10
2023-03-16T11:03:28.896Z,11.11
2023-03-16T11:06:02.303Z,11.10
2023-03-16T11:08:38.912Z,11.18
2023-03-16T11:11:11.903Z,11.24
2023-03-16T11:13:47.718Z,11.25
2023-03-16T11:16:24.138Z,11.28
2023-03-16T11:18:58.160Z,11.15
2023-03-16T11:21:36.520Z,11.16
2023-03-16T11:24:05.719Z,11.14
2023-03-16T11:26:37.762Z,10.91
2023-03-16T11:29:11.603Z,10.78
2023-03-16T11:31:42.924Z,10.84
2023-03-16T11:34:19.476Z,10.81
2023-03-16T11:36:53.676Z,10.84
2023-03-16T11:39:31.574Z,11.02
2023-03-16T11:42:10.625Z,11.11
2023-03-16T11:44:45.348Z,10.94
2023-03-16T11:47:32.058Z,10.98
2023-03-16T11:50:05.894Z,10.91
2023-03-16T11:52:42.873Z,10.78
2023-03-16T11:55:24.878Z,10.43
2023-03-16T11:58:11.971Z,10.34
2023-03-16T12:00:48.266Z,10.46
2023-03-16T12:03:31.379Z,10.34
2023-03-16T12:06:05.716Z,10.26
2023-03-16T12:09:08.641Z,10.20
2023-03-16T12:11:41.027Z,10.27
2023-03-16T12:14:18.411Z,10.32
2023-03-16T12:16:51.362Z,10.25
2023-03-16T12:19:23.353Z,10.03
2023-03-16T12:22:01.561Z,10.01
2023-03-16T12:24:33.424Z,9.95
2023-03-16T12:27:02.755Z,9.92
2023-03-16T12:29:35.520Z,9.75
2023-03-16T12:32:12.171Z,9.57
2023-03-16T12:34:46.699Z,9.40
2023-03-16T12:37:26.552Z,9.22
2023-03-16T12:40:07.828Z,9.05
2023-03-16T12:43:09.610Z,8.86
2023-03-16T12:45:42.138Z,8.71
2023-03-16T12:48:18.778Z,8.67
2023-03-16T12:50:51.598Z,8.58
2023-03-16T12:53:45.301Z,8.61
2023-03-16T12:56:16.529Z,8.69
2023-03-16T12:58:47.594Z,8.75
2023-03-16T13:01:18.529Z,8.67
2023-03-16T13:03:51.043Z,8.62
2023-03-16T13:06:21.773Z,8.58
2023-03-16T13:08:53.983Z,8.48
2023-03-16T13:11:22.768Z,8.48
2023-03-16T13:14:08.880Z,8.44
2023-03-16T13:16:38.799Z,8.52
2023-03-16T13:19:28.514Z,8.50
2023-03-16T13:22:08.737Z,8.45
2023-03-16T13:24:40.100Z,8.38
2023-03-16T13:27:24.868Z,8.34
2023-03-16T13:29:55.859Z,8.24
2023-03-16T13:32:27.446Z,8.24
2023-03-16T13:35:00.704Z,8.16
2023-03-16T13:37:31.190Z,8.19
2023-03-16T13:40:06.115Z,8.23
2023-03-16T13:42:34.828Z,8.24
2023-03-16T13:45:14.529Z,8.33
2023-03-16T13:47:44.479Z,8.36
2023-03-16T13:50:16.162Z,8.31
2023-03-16T13:52:45.671Z,8.21
2023-03-16T13:55:17.783Z,8.19
2023-03-16T13:57:49.212Z,8.20
2023-03-16T14:00:21.041Z,8.21
2023-03-16T14:02:53.469Z,8.21
2023-03-16T14:05:27.394Z,8.20
2023-03-16T14:07:57.702Z,8.23
2023-03-16T14:10:31.997Z,8.30
2023-03-16T14:13:09.226Z,8.27
2023-03-16T14:15:38.678Z,8.24
2023-03-16T14:18:14.901Z,8.24
2023-03-16T14:20:44.899Z,8.17
2023-03-16T14:23:21.049Z,8.21
2023-03-16T14:25:50.131Z,8.20
2023-03-16T14:28:21.168Z,8.21
2023-03-16T14:30:53.548Z,8.26
2023-03-16T14:33:26.791Z,8.38
2023-03-16T14:35:59.498Z,8.57
2023-03-16T14:38:37.736Z,8.72
2023-03-16T14:41:11.534Z,8.71
2023-03-16T14:43:45.780Z,8.60
2023-03-16T14:46:16.369Z,8.50
2023-03-16T14:48:46.047Z,8.47
2023-03-16T14:51:16.773Z,8.38
2023-03-16T14:53:45.169Z,8.34
2023-03-16T14:56:14.666Z,8.38
2023-03-16T14:58:43.511Z,8.40
2023-03-16T15:01:15.728Z,8.33
2023-03-16T15:03:44.161Z,8.34
2023-03-16T15:06:12.505Z,8.37
2023-03-16T15:08:45.413Z,8.33
2023-03-16T15:11:13.666Z,8.40
2023-03-16T15:14:03.898Z,8.40
2023-03-16T15:16:34.685Z,8.40
2023-03-16T15:19:02.795Z,8.41
2023-03-16T15:21:31.490Z,8.42
2023-03-16T15:24:01.044Z,8.41
2023-03-16T15:26:30.824Z,8.36
2023-03-16T15:28:59.601Z,8.36
2023-03-16T15:31:27.870Z,8.33
2023-03-16T15:33:56.422Z,8.37
2023-03-16T15:36:24.860Z,8.27
2023-03-16T15:38:55.233Z,8.24
2023-03-16T15:41:32.403Z,8.24
2023-03-16T15:44:16.308Z,8.27
2023-03-16T15:46:45.310Z,8.27
2023-03-16T15:49:15.362Z,8.24
2023-03-16T15:51:44.119Z,8.26
2023-03-16T15:54:14.455Z,8.17
2023-03-16T15:56:54.198Z,8.13
2023-03-16T15:59:24.797Z,8.11
2023-03-16T16:02:01.290Z,8.13
2023-03-16T16:04:31.074Z,8.11
2023-03-16T16:07:00.125Z,8.07
2023-03-16T16:09:28.844Z,8.04
2023-03-16T16:11:58.559Z,8.04
2023-03-16T16:14:28.384Z,8.03
2023-03-16T16:16:59.536Z,7.99
2023-03-16T16:19:30.372Z,7.90
2023-03-16T16:21:59.069Z,7.87
2023-03-16T16:24:30.081Z,7.86
2023-03-16T16:27:00.019Z,7.78
2023-03-16T16:29:33.932Z,7.75
2023-03-16T16:32:03.840Z,7.68
2023-03-16T16:34:33.454Z,7.62
2023-03-16T16:37:02.960Z,7.59
2023-03-16T16:39:31.454Z,7.56
2023-03-16T16:42:01.202Z,7.51
2023-03-16T16:44:34.549Z,7.45
2023-03-16T16:47:03.882Z,7.38
2023-03-16T16:49:35.042Z,7.31
2023-03-16T16:52:03.850Z,7.21
2023-03-16T16:54:33.234Z,7.23
2023-03-16T16:57:03.221Z,7.17
2023-03-16T16:59:33.243Z,7.10
2023-03-16T17:02:02.127Z,7.04
2023-03-16T17:04:30.820Z,6.97
2023-03-16T17:07:02.732Z,6.93
2023-03-16T17:09:31.893Z,6.87
2023-03-16T17:12:04.231Z,6.84
2023-03-16T17:14:33.167Z,6.83
2023-03-16T17:17:08.030Z,6.77
2023-03-16T17:19:38.268Z,6.73
2023-03-16T17:22:24.563Z,6.71
2023-03-16T17:24:53.057Z,6.66
2023-03-16T17:27:27.147Z,6.61
2023-03-16T17:29:55.999Z,6.55
2023-03-16T17:32:24.623Z,6.49
2023-03-16T17:34:53.722Z,6.45
2023-03-16T17:37:23.498Z,6.44
2023-03-16T17:39:53.961Z,6.42
2023-03-16T17:42:27.795Z,6.41
2023-03-16T17:44:57.948Z,6.39
2023-03-16T17:47:28.058Z,6.42
2023-03-16T17:49:59.001Z,6.38
2023-03-16T17:52:31.531Z,6.36
2023-03-16T17:54:59.851Z,6.36
2023-03-16T17:57:31.094Z,6.36
2023-03-16T17:59:59.725Z,6.39
2023-03-16T18:02:45.307Z,6.42
2023-03-16T18:05:18.603Z,6.41
2023-03-16T18:07:47.655Z,6.41
2023-03-16T18:10:17.045Z,6.41
2023-03-16T18:12:52.756Z,6.38
2023-03-16T18:15:25.537Z,6.36
2023-03-16T18:17:54.010Z,6.38
2023-03-16T18:20:30.954Z,6.39
2023-03-16T18:23:02.765Z,6.38
2023-03-16T18:25:35.248Z,6.44
2023-03-16T18:28:08.910Z,6.48
2023-03-16T18:30:42.649Z,6.45
2023-03-16T18:33:26.759Z,6.41
2023-03-16T18:35:56.848Z,6.42
2023-03-16T18:38:30.819Z,6.41
2023-03-16T18:40:59.748Z,6.42
2023-03-16T18:43:34.049Z,6.44
2023-03-16T18:46:11.550Z,6.42
2023-03-16T18:48:40.954Z,6.36
2023-03-16T18:51:14.655Z,6.34
2023-03-16T18:53:50.793Z,6.34
2023-03-16T18:56:24.012Z,6.34
2023-03-16T18:58:54.508Z,6.31
2023-03-16T19:01:25.982Z,6.24
2023-03-16T19:03:54.705Z,6.22
2023-03-16T19:06:30.025Z,6.22
2023-03-16T19:09:03.983Z,6.18
2023-03-16T19:11:33.539Z,6.17
2023-03-16T19:14:03.211Z,6.14
2023-03-16T19:16:31.682Z,6.17
2023-03-16T19:19:02.661Z,6.14
2023-03-16T19:21:33.012Z,6.18
2023-03-16T19:24:04.201Z,6.20
2023-03-16T19:26:34.806Z,6.15
2023-03-16T19:29:06.581Z,6.17
2023-03-16T19:31:34.834Z,6.18
2023-03-16T19:34:03.396Z,6.15
2023-03-16T19:36:34.048Z,6.18
2023-03-16T19:39:04.427Z,6.18
2023-03-16T19:41:36.354Z,6.18
2023-03-16T19:44:09.237Z,6.21
2023-03-16T19:46:37.537Z,6.21
2023-03-16T19:49:10.230Z,6.21
2023-03-16T19:51:39.278Z,6.21
2023-03-16T19:54:07.701Z,6.24
2023-03-16T19:56:37.340Z,6.21
2023-03-16T19:59:08.102Z,6.20
2023-03-16T20:01:38.117Z,6.20
2023-03-16T20:04:17.787Z,6.21
2023-03-16T20:06:50.087Z,6.21
2023-03-16T20:09:18.248Z,6.20
2023-03-16T20:11:47.296Z,6.20
2023-03-16T20:14:20.084Z,6.15
2023-03-16T20:16:48.341Z,6.17
2023-03-16T20:19:17.615Z,6.15
2023-03-16T20:21:45.963Z,6.14
2023-03-16T20:24:16.668Z,6.14
2023-03-16T20:26:45.722Z,6.14
2023-03-16T20:29:20.634Z,6.10
2023-03-16T20:31:53.405Z,6.11
2023-03-16T20:34:25.841Z,6.07
2023-03-16T20:36:54.696Z,6.08
2023-03-16T20:39:22.828Z,6.05
2023-03-16T20:41:51.689Z,6.07
2023-03-16T20:44:23.750Z,6.04
2023-03-16T20:46:52.105Z,6.03
2023-03-16T20:49:34.093Z,6.01
2023-03-16T20:52:03.933Z,6.00
2023-03-16T20:54:33.800Z,5.98
2023-03-16T20:57:02.292Z,5.95
2023-03-16T20:59:32.744Z,5.94
2023-03-16T21:02:01.824Z,5.93
2023-03-16T21:04:31.214Z,5.89
2023-03-16T21:06:59.344Z,5.89
2023-03-16T21:09:27.866Z,5.82
2023-03-16T21:11:56.119Z,5.80
2023-03-16T21:14:25.680Z,5.78
2023-03-16T21:16:55.663Z,5.73
2023-03-16T21:19:25.109Z,5.70
2023-03-16T21:21:54.715Z,5.67
2023-03-16T21:24:22.805Z,5.69
2023-03-16T21:26:50.927Z,5.67
2023-03-16T21:29:24.436Z,5.66
2023-03-16T21:31:54.244Z,5.63
2023-03-16T21:34:26.549Z,5.62
2023-03-16T21:36:55.312Z,5.63
2023-03-16T21:39:25.338Z,5.60
2023-03-16T21:41:53.771Z,5.60
2023-03-16T21:44:24.161Z,5.57
2023-03-16T21:46:52.331Z,5.57
2023-03-16T21:49:20.770Z,5.55
2023-03-16T21:51:52.098Z,5.52
2023-03-16T21:54:20.170Z,5.50
2023-03-16T21:56:49.030Z,5.49
2023-03-16T21:59:18.350Z,5.49
2023-03-16T22:02:00.755Z,5.47
2023-03-16T22:04:30.022Z,5.46
2023-03-16T22:07:03.633Z,5.49
2023-03-16T22:09:33.027Z,5.50
2023-03-16T22:12:01.656Z,5.49
2023-03-16T22:14:32.815Z,5.47
2023-03-16T22:17:03.758Z,5.49
2023-03-16T22:19:32.494Z,5.43
2023-03-16T22:22:04.936Z,5.46
2023-03-16T22:24:35.933Z,5.43
2023-03-16T22:27:04.350Z,5.43
2023-03-16T22:29:34.504Z,5.40
2023-03-16T22:32:05.305Z,5.40
2023-03-16T22:34:37.509Z,5.39
2023-03-16T22:37:08.841Z,5.40
2023-03-16T22:39:38.420Z,5.38
2023-03-16T22:42:23.307Z,5.35
2023-03-16T22:44:51.521Z,5.38
2023-03-16T22:47:22.568Z,5.35
2023-03-16T22:49:51.244Z,5.34
2023-03-16T22:52:21.929Z,5.31
2023-03-16T22:54:50.163Z,5.26
2023-03-16T22:57:18.370Z,5.21
2023-03-16T22:59:47.798Z,5.16
2023-03-16T23:02:18.328Z,5.12
2023-03-16T23:04:46.982Z,5.09
2023-03-16T23:07:18.296Z,5.03
2023-03-16T23:09:48.491Z,5.01
2023-03-16T23:12:18.942Z,4.99
2023-03-16T23:14:47.362Z,4.92
2023-03-16T23:17:17.833Z,4.89
2023-03-16T23:19:46.353Z,4.84
2023-03-16T23:22:15.155Z,4.81
2023-03-16T23:24:43.706Z,4.73
2023-03-16T23:27:18.820Z,4.68
2023-03-16T23:29:48.439Z,4.60
2023-03-16T23:32:18.308Z,4.54
2023-03-16T23:34:47.590Z,4.52
2023-03-16T23:37:16.396Z,4.50
2023-03-16T23:39:44.863Z,4.50
2023-03-16T23:42:13.292Z,4.47
2023-03-16T23:44:43.841Z,4.46
2023-03-16T23:47:12.470Z,4.42
2023-03-16T23:49:42.465Z,4.39
2023-03-16T23:52:16.207Z,4.39
2023-03-16T23:54:44.611Z,4.36
2023-03-16T23:57:13.010Z,4.35
2023-03-16T23:59:41.272Z,4.25
